createdAt,value
2019-05-11T00:00:50.512Z,994.32
2019-05-11T00:01:50.430Z,994.33
2019-05-11T00:02:50.455Z,994.33
2019-05-11T00:03:50.408Z,994.39
2019-05-11T00:04:50.401Z,994.33
2019-05-11T00:05:50.385Z,994.33
2019-05-11T00:06:50.440Z,994.33
2019-05-11T00:07:50.367Z,994.38
2019-05-11T00:08:50.351Z,994.37
2019-05-11T00:09:58.134Z,994.40
2019-05-11T00:10:51.326Z,994.35
2019-05-11T00:11:50.315Z,994.43
2019-05-11T00:12:50.367Z,994.39
2019-05-11T00:13:50.293Z,994.41
2019-05-11T00:14:50.286Z,994.44
2019-05-11T00:15:50.270Z,994.52
2019-05-11T00:16:50.259Z,994.44
2019-05-11T00:17:50.249Z,994.41
2019-05-11T00:18:50.313Z,994.35
2019-05-11T00:19:50.226Z,994.31
2019-05-11T00:20:50.213Z,994.24
2019-05-11T00:21:50.201Z,994.19
2019-05-11T00:22:50.190Z,994.11
2019-05-11T00:23:50.180Z,994.12
2019-05-11T00:24:50.239Z,994.18
2019-05-11T00:25:50.157Z,994.17
2019-05-11T00:26:50.146Z,994.08
2019-05-11T00:27:50.135Z,994.06
2019-05-11T00:28:50.125Z,994.09
2019-05-11T00:29:50.116Z,994.06
2019-05-11T00:30:50.168Z,994.12
2019-05-11T00:31:50.144Z,994.14
2019-05-11T00:32:50.085Z,994.14
2019-05-11T00:33:50.067Z,994.14
2019-05-11T00:34:50.057Z,994.16
2019-05-11T00:35:50.044Z,994.11
2019-05-11T00:36:50.096Z,994.11
2019-05-11T00:37:50.026Z,994.11
2019-05-11T00:38:50.122Z,994.04
2019-05-11T00:39:49.998Z,994.07
2019-05-11T00:40:49.987Z,994.15
2019-05-11T00:41:49.976Z,994.05
2019-05-11T00:42:50.036Z,994.08
2019-05-11T00:43:49.955Z,994.03
2019-05-11T00:44:49.941Z,994.09
2019-05-11T00:45:49.932Z,994.11
2019-05-11T00:46:49.959Z,994.15
2019-05-11T00:47:49.908Z,994.08
2019-05-11T00:48:49.965Z,994.07
2019-05-11T00:49:49.885Z,994.05
2019-05-11T00:50:49.880Z,994.13
2019-05-11T00:51:49.861Z,994.04
2019-05-11T00:52:49.852Z,994.09
2019-05-11T00:53:49.855Z,994.11
2019-05-11T00:54:49.921Z,994.01
2019-05-11T00:55:49.816Z,993.99
2019-05-11T00:56:49.806Z,994.01
2019-05-11T00:57:49.801Z,993.91
2019-05-11T00:58:51.010Z,993.92
2019-05-11T00:59:49.771Z,993.98
2019-05-11T01:00:49.823Z,993.86
2019-05-11T01:01:49.749Z,993.89
2019-05-11T01:02:49.738Z,993.84
2019-05-11T01:03:49.729Z,993.76
2019-05-11T01:04:49.743Z,993.72
2019-05-11T01:05:49.704Z,993.77
2019-05-11T01:06:49.755Z,993.73
2019-05-11T01:07:49.681Z,993.68
2019-05-11T01:08:49.672Z,993.67
2019-05-11T01:09:49.658Z,993.63
2019-05-11T01:10:49.648Z,993.70
2019-05-11T01:11:49.636Z,993.72
2019-05-11T01:12:49.687Z,993.64
2019-05-11T01:13:49.611Z,993.62
2019-05-11T01:14:49.601Z,993.53
2019-05-11T01:15:49.592Z,993.51
2019-05-11T01:16:49.579Z,993.58
2019-05-11T01:17:49.571Z,993.57
2019-05-11T01:18:49.621Z,993.51
2019-05-11T01:19:49.549Z,993.53
2019-05-11T01:20:49.539Z,993.45
2019-05-11T01:21:49.523Z,993.46
2019-05-11T01:22:49.512Z,993.48
2019-05-11T01:23:49.500Z,993.44
2019-05-11T01:24:49.556Z,993.47
2019-05-11T01:25:49.476Z,993.46
2019-05-11T01:26:49.465Z,993.48
2019-05-11T01:27:49.454Z,993.43
2019-05-11T01:28:49.444Z,993.39
2019-05-11T01:29:49.433Z,993.45
2019-05-11T01:30:49.485Z,993.43
2019-05-11T01:31:49.412Z,993.53
2019-05-11T01:32:49.398Z,993.47
2019-05-11T01:33:49.386Z,993.53
2019-05-11T01:34:49.376Z,993.44
2019-05-11T01:35:51.232Z,993.45
2019-05-11T01:36:49.415Z,993.36
2019-05-11T01:37:49.342Z,993.36
2019-05-11T01:38:49.331Z,993.35
2019-05-11T01:39:49.320Z,993.44
2019-05-11T01:40:58.111Z,993.44
2019-05-11T01:41:50.356Z,993.38
2019-05-11T01:42:49.287Z,993.31
2019-05-11T01:43:49.273Z,993.27
2019-05-11T01:44:49.261Z,993.34
2019-05-11T01:45:49.252Z,993.29
2019-05-11T01:46:49.240Z,993.25
2019-05-11T01:47:49.316Z,993.33
2019-05-11T01:48:49.216Z,993.35
2019-05-11T01:49:49.204Z,993.27
2019-05-11T01:50:49.193Z,993.29
2019-05-11T01:51:49.186Z,993.33
2019-05-11T01:52:49.171Z,993.39
2019-05-11T01:53:49.231Z,993.38
2019-05-11T01:54:49.148Z,993.39
2019-05-11T01:55:49.136Z,993.34
2019-05-11T01:56:49.126Z,993.36
2019-05-11T01:57:49.114Z,993.41
2019-05-11T01:58:49.104Z,993.34
2019-05-11T01:59:49.161Z,993.36
2019-05-11T02:00:49.079Z,993.36
2019-05-11T02:01:49.069Z,993.32
2019-05-11T02:02:49.061Z,993.32
2019-05-11T02:03:49.051Z,993.38
2019-05-11T02:04:49.034Z,993.34
2019-05-11T02:05:51.623Z,993.31
2019-05-11T02:06:49.016Z,993.30
2019-05-11T02:07:49.004Z,993.26
2019-05-11T02:08:48.989Z,993.22
2019-05-11T02:09:48.977Z,993.24
2019-05-11T02:10:48.970Z,993.27
2019-05-11T02:11:49.024Z,993.24
2019-05-11T02:12:48.947Z,993.26
2019-05-11T02:13:48.932Z,993.23
2019-05-11T02:14:48.926Z,993.29
2019-05-11T02:15:48.910Z,993.23
2019-05-11T02:16:48.898Z,993.19
2019-05-11T02:17:48.954Z,993.21
2019-05-11T02:18:48.876Z,993.21
2019-05-11T02:19:48.866Z,993.18
2019-05-11T02:20:48.853Z,993.13
2019-05-11T02:21:48.842Z,993.20
2019-05-11T02:22:48.832Z,993.22
2019-05-11T02:23:48.892Z,993.25
2019-05-11T02:24:48.808Z,993.17
2019-05-11T02:25:48.798Z,993.27
2019-05-11T02:26:48.786Z,993.25
2019-05-11T02:27:48.775Z,993.30
2019-05-11T02:28:48.763Z,993.28
2019-05-11T02:29:48.822Z,993.33
2019-05-11T02:30:48.742Z,993.31
2019-05-11T02:31:48.734Z,993.22
2019-05-11T02:32:48.868Z,993.23
2019-05-11T02:33:48.706Z,993.28
2019-05-11T02:34:48.695Z,993.24
2019-05-11T02:35:48.771Z,993.20
2019-05-11T02:36:48.721Z,993.28
2019-05-11T02:37:48.668Z,993.20
2019-05-11T02:38:48.655Z,993.19
2019-05-11T02:39:48.639Z,993.22
2019-05-11T02:40:48.627Z,993.25
2019-05-11T02:41:48.688Z,993.22
2019-05-11T02:42:48.603Z,993.25
2019-05-11T02:43:48.597Z,993.20
2019-05-11T02:44:48.581Z,993.25
2019-05-11T02:45:48.571Z,993.19
2019-05-11T02:46:48.609Z,993.24
2019-05-11T02:47:48.619Z,993.15
2019-05-11T02:48:48.538Z,993.18
2019-05-11T02:49:48.526Z,993.05
2019-05-11T02:50:48.515Z,993.16
2019-05-11T02:51:48.503Z,993.09
2019-05-11T02:52:48.490Z,993.04
2019-05-11T02:53:48.549Z,993.12
2019-05-11T02:54:48.468Z,993.06
2019-05-11T02:55:48.459Z,993.04
2019-05-11T02:56:48.444Z,993.05
2019-05-11T02:57:48.434Z,992.95
2019-05-11T02:58:48.424Z,992.92
2019-05-11T02:59:48.482Z,992.98
2019-05-11T03:00:48.403Z,992.93
2019-05-11T03:01:48.388Z,992.96
2019-05-11T03:02:48.394Z,992.99
2019-05-11T03:03:48.367Z,992.94
2019-05-11T03:04:48.359Z,992.93
2019-05-11T03:05:48.421Z,992.85
2019-05-11T03:06:48.333Z,992.88
2019-05-11T03:07:48.322Z,992.91
2019-05-11T03:08:48.311Z,992.86
2019-05-11T03:09:48.301Z,992.87
2019-05-11T03:10:48.287Z,992.86
2019-05-11T03:11:55.603Z,992.78
2019-05-11T03:12:49.370Z,992.73
2019-05-11T03:13:48.252Z,992.75
2019-05-11T03:14:48.243Z,992.72
2019-05-11T03:15:48.231Z,992.77
2019-05-11T03:16:48.219Z,992.81
2019-05-11T03:17:48.277Z,992.76
2019-05-11T03:18:48.197Z,992.82
2019-05-11T03:19:48.187Z,992.84
2019-05-11T03:20:48.174Z,992.95
2019-05-11T03:21:48.164Z,992.95
2019-05-11T03:22:48.154Z,992.85
2019-05-11T03:23:48.207Z,992.91
2019-05-11T03:24:48.129Z,992.86
2019-05-11T03:25:48.117Z,992.91
2019-05-11T03:26:48.105Z,992.91
2019-05-11T03:27:48.094Z,992.91
2019-05-11T03:28:48.082Z,992.90
2019-05-11T03:29:48.141Z,992.83
2019-05-11T03:30:48.061Z,992.96
2019-05-11T03:31:48.051Z,992.99
2019-05-11T03:32:48.058Z,992.92
2019-05-11T03:33:48.029Z,992.93
2019-05-11T03:34:48.028Z,992.98
2019-05-11T03:35:48.076Z,992.96
2019-05-11T03:36:47.994Z,992.89
2019-05-11T03:37:47.981Z,992.94
2019-05-11T03:38:47.972Z,992.91
2019-05-11T03:39:47.959Z,992.98
2019-05-11T03:40:47.948Z,993.02
2019-05-11T03:41:48.005Z,993.05
2019-05-11T03:42:47.924Z,993.11
2019-05-11T03:43:47.914Z,993.00
2019-05-11T03:44:47.903Z,993.01
2019-05-11T03:45:47.892Z,992.94
2019-05-11T03:46:47.879Z,992.94
2019-05-11T03:47:47.939Z,992.97
2019-05-11T03:48:47.857Z,992.96
2019-05-11T03:49:47.848Z,992.86
2019-05-11T03:50:47.837Z,992.98
2019-05-11T03:51:47.828Z,992.88
2019-05-11T03:52:47.814Z,992.91
2019-05-11T03:53:47.868Z,992.97
2019-05-11T03:54:47.791Z,992.96
2019-05-11T03:55:47.779Z,992.96
2019-05-11T03:56:47.767Z,992.92
2019-05-11T03:57:47.755Z,993.00
2019-05-11T03:58:47.743Z,992.92
2019-05-11T03:59:47.803Z,992.98
2019-05-11T04:00:47.728Z,992.88
2019-05-11T04:01:47.711Z,992.93
2019-05-11T04:02:47.699Z,992.96
2019-05-11T04:03:47.692Z,992.87
2019-05-11T04:04:47.681Z,992.79
2019-05-11T04:05:47.733Z,992.85
2019-05-11T04:06:47.654Z,992.82
2019-05-11T04:07:47.643Z,992.79
2019-05-11T04:08:47.629Z,992.74
2019-05-11T04:09:47.625Z,992.80
2019-05-11T04:10:47.607Z,992.71
2019-05-11T04:11:47.668Z,992.76
2019-05-11T04:12:47.583Z,992.68
2019-05-11T04:13:47.574Z,992.66
2019-05-11T04:14:47.561Z,992.63
2019-05-11T04:15:47.552Z,992.70
2019-05-11T04:16:47.540Z,992.72
2019-05-11T04:17:47.601Z,992.72
2019-05-11T04:18:47.518Z,992.77
2019-05-11T04:19:47.507Z,992.72
2019-05-11T04:20:47.492Z,992.84
2019-05-11T04:21:47.483Z,992.68
2019-05-11T04:22:47.475Z,992.86
2019-05-11T04:23:47.527Z,992.82
2019-05-11T04:24:47.455Z,992.85
2019-05-11T04:25:47.437Z,992.80
2019-05-11T04:26:47.428Z,992.82
2019-05-11T04:27:47.419Z,992.78
2019-05-11T04:28:47.404Z,992.67
2019-05-11T04:29:47.461Z,992.74
2019-05-11T04:30:47.384Z,992.74
2019-05-11T04:31:47.369Z,992.73
2019-05-11T04:32:47.362Z,992.70
2019-05-11T04:33:47.354Z,992.70
2019-05-11T04:34:47.341Z,992.73
2019-05-11T04:35:47.419Z,992.75
2019-05-11T04:36:47.315Z,992.68
2019-05-11T04:37:47.300Z,992.72
2019-05-11T04:38:47.291Z,992.66
2019-05-11T04:39:47.279Z,992.77
2019-05-11T04:40:47.268Z,992.73
2019-05-11T04:41:47.325Z,992.79
2019-05-11T04:42:55.244Z,992.71
2019-05-11T04:43:48.235Z,992.79
2019-05-11T04:44:51.642Z,992.80
2019-05-11T04:45:48.210Z,992.79
2019-05-11T04:46:47.203Z,992.79
2019-05-11T04:47:47.266Z,992.76
2019-05-11T04:48:47.187Z,992.69
2019-05-11T04:49:47.186Z,992.70
2019-05-11T04:50:47.152Z,992.72
2019-05-11T04:51:47.144Z,992.59
2019-05-11T04:52:47.131Z,992.69
2019-05-11T04:53:47.200Z,992.67
2019-05-11T04:54:47.154Z,992.67
2019-05-11T04:55:47.100Z,992.68
2019-05-11T04:56:47.089Z,992.64
2019-05-11T04:57:47.076Z,992.60
2019-05-11T04:58:47.063Z,992.60
2019-05-11T04:59:47.120Z,992.58
2019-05-11T05:00:47.041Z,992.60
2019-05-11T05:01:47.033Z,992.52
2019-05-11T05:02:47.017Z,992.56
2019-05-11T05:03:53.452Z,992.56
2019-05-11T05:04:48.066Z,992.53
2019-05-11T05:05:47.005Z,992.53
2019-05-11T05:06:59.046Z,992.49
2019-05-11T05:07:50.430Z,992.53
2019-05-11T05:08:46.947Z,992.58
2019-05-11T05:09:46.938Z,992.55
2019-05-11T05:10:46.998Z,992.61
2019-05-11T05:11:46.914Z,992.59
2019-05-11T05:12:51.383Z,992.67
2019-05-11T05:13:47.891Z,992.62
2019-05-11T05:14:46.879Z,992.62
2019-05-11T05:15:46.870Z,992.63
2019-05-11T05:16:46.925Z,992.61
2019-05-11T05:17:46.846Z,992.61
2019-05-11T05:18:46.859Z,992.58
2019-05-11T05:19:46.825Z,992.59
2019-05-11T05:20:46.812Z,992.62
2019-05-11T05:21:46.806Z,992.60
2019-05-11T05:22:46.855Z,992.66
2019-05-11T05:23:46.781Z,992.73
2019-05-11T05:24:46.768Z,992.69
2019-05-11T05:25:46.755Z,992.74
2019-05-11T05:26:46.749Z,992.77
2019-05-11T05:27:46.731Z,992.74
2019-05-11T05:28:46.832Z,992.77
2019-05-11T05:29:46.709Z,992.72
2019-05-11T05:30:46.699Z,992.78
2019-05-11T05:31:46.686Z,992.73
2019-05-11T05:32:46.678Z,992.70
2019-05-11T05:33:46.665Z,992.75
2019-05-11T05:34:46.722Z,992.72
2019-05-11T05:35:46.640Z,992.71
2019-05-11T05:36:46.631Z,992.70
2019-05-11T05:37:46.688Z,992.75
2019-05-11T05:38:46.607Z,992.71
2019-05-11T05:39:46.595Z,992.78
2019-05-11T05:40:46.659Z,992.76
2019-05-11T05:41:56.633Z,992.76
2019-05-11T05:42:47.562Z,992.73
2019-05-11T05:43:46.556Z,992.79
2019-05-11T05:44:46.539Z,992.81
2019-05-11T05:45:46.527Z,992.87
2019-05-11T05:46:46.606Z,992.81
2019-05-11T05:47:46.508Z,992.85
2019-05-11T05:48:46.497Z,992.80
2019-05-11T05:49:46.478Z,992.71
2019-05-11T05:50:46.468Z,992.65
2019-05-11T05:51:46.454Z,992.62
2019-05-11T05:52:46.512Z,992.58
2019-05-11T05:53:46.436Z,992.50
2019-05-11T05:54:46.421Z,992.49
2019-05-11T05:55:46.409Z,992.58
2019-05-11T05:56:46.398Z,992.57
2019-05-11T05:57:46.401Z,992.39
2019-05-11T05:58:46.450Z,992.52
2019-05-11T05:59:46.362Z,992.42
2019-05-11T06:00:46.354Z,992.48
2019-05-11T06:01:46.349Z,992.54
2019-05-11T06:02:46.329Z,992.53
2019-05-11T06:03:46.319Z,992.43
2019-05-11T06:04:46.375Z,992.48
2019-05-11T06:05:46.298Z,992.41
2019-05-11T06:06:46.282Z,992.46
2019-05-11T06:07:46.272Z,992.42
2019-05-11T06:08:46.260Z,992.51
2019-05-11T06:09:46.251Z,992.49
2019-05-11T06:10:46.311Z,992.50
2019-05-11T06:11:46.227Z,992.50
2019-05-11T06:12:46.217Z,992.50
2019-05-11T06:13:46.202Z,992.53
2019-05-11T06:14:46.191Z,992.58
2019-05-11T06:15:46.178Z,992.48
2019-05-11T06:16:46.238Z,992.49
2019-05-11T06:17:46.159Z,992.43
2019-05-11T06:18:46.149Z,992.44
2019-05-11T06:19:46.134Z,992.39
2019-05-11T06:20:46.130Z,992.40
2019-05-11T06:21:46.131Z,992.42
2019-05-11T06:22:46.185Z,992.35
2019-05-11T06:23:46.087Z,992.36
2019-05-11T06:24:46.079Z,992.34
2019-05-11T06:25:46.064Z,992.40
2019-05-11T06:26:46.052Z,992.34
2019-05-11T06:27:46.058Z,992.35
2019-05-11T06:28:46.104Z,992.39
2019-05-11T06:29:46.021Z,992.29
2019-05-11T06:30:46.011Z,992.35
2019-05-11T06:31:45.995Z,992.26
2019-05-11T06:32:45.989Z,992.22
2019-05-11T06:33:45.974Z,992.21
2019-05-11T06:34:46.028Z,992.24
2019-05-11T06:35:45.966Z,992.19
2019-05-11T06:36:46.091Z,992.20
2019-05-11T06:37:45.928Z,992.20
2019-05-11T06:38:45.915Z,992.16
2019-05-11T06:39:45.904Z,992.10
2019-05-11T06:40:45.967Z,992.09
2019-05-11T06:41:45.883Z,992.08
2019-05-11T06:42:45.871Z,992.07
2019-05-11T06:44:00.799Z,992.15
2019-05-11T06:44:46.851Z,992.15
2019-05-11T06:45:45.836Z,992.09
2019-05-11T06:46:45.899Z,992.12
2019-05-11T06:47:45.814Z,992.18
2019-05-11T06:48:45.812Z,992.12
2019-05-11T06:49:45.801Z,992.17
2019-05-11T06:50:45.782Z,992.13
2019-05-11T06:51:45.768Z,992.18
2019-05-11T06:52:45.832Z,992.16
2019-05-11T06:53:45.745Z,992.17
2019-05-11T06:54:45.735Z,992.05
2019-05-11T06:55:45.727Z,992.16
2019-05-11T06:56:45.715Z,992.14
2019-05-11T06:57:45.702Z,992.11
2019-05-11T06:58:45.813Z,992.03
2019-05-11T06:59:45.678Z,992.02
2019-05-11T07:00:45.694Z,992.11
2019-05-11T07:01:45.661Z,992.05
2019-05-11T07:02:45.645Z,992.13
2019-05-11T07:03:45.632Z,992.06
2019-05-11T07:04:45.697Z,992.09
2019-05-11T07:05:45.609Z,992.00
2019-05-11T07:06:45.600Z,991.94
2019-05-11T07:07:47.865Z,991.98
2019-05-11T07:08:45.580Z,992.01
2019-05-11T07:09:45.562Z,992.03
2019-05-11T07:10:45.623Z,992.02
2019-05-11T07:11:45.537Z,991.95
2019-05-11T07:12:45.530Z,991.91
2019-05-11T07:13:45.521Z,992.01
2019-05-11T07:14:45.503Z,992.03
2019-05-11T07:15:45.492Z,992.04
2019-05-11T07:16:45.556Z,992.07
2019-05-11T07:17:45.478Z,992.02
2019-05-11T07:18:45.461Z,991.99
2019-05-11T07:19:47.478Z,992.05
2019-05-11T07:20:50.417Z,992.00
2019-05-11T07:21:46.504Z,991.97
2019-05-11T07:22:45.415Z,992.10
2019-05-11T07:23:45.411Z,992.06
2019-05-11T07:24:45.459Z,992.15
2019-05-11T07:25:45.380Z,992.11
2019-05-11T07:26:45.375Z,992.16
2019-05-11T07:27:45.427Z,992.10
2019-05-11T07:28:45.348Z,992.12
2019-05-11T07:29:45.332Z,992.08
2019-05-11T07:30:45.326Z,992.11
2019-05-11T07:31:45.331Z,992.12
2019-05-11T07:32:45.298Z,992.01
2019-05-11T07:33:45.359Z,992.05
2019-05-11T07:34:45.280Z,992.06
2019-05-11T07:35:47.698Z,992.01
2019-05-11T07:36:47.587Z,991.97
2019-05-11T07:37:47.697Z,992.04
2019-05-11T07:38:45.230Z,992.03
2019-05-11T07:39:45.286Z,992.03
2019-05-11T07:40:47.528Z,992.02
2019-05-11T07:41:45.195Z,991.99
2019-05-11T07:42:45.185Z,992.00
2019-05-11T07:43:45.176Z,991.97
2019-05-11T07:44:45.161Z,992.02
2019-05-11T07:45:45.230Z,991.92
2019-05-11T07:46:45.140Z,991.89
2019-05-11T07:47:45.127Z,991.91
2019-05-11T07:48:45.115Z,991.91
2019-05-11T07:49:45.105Z,991.86
2019-05-11T07:50:45.093Z,991.88
2019-05-11T07:51:45.152Z,991.89
2019-05-11T07:52:45.082Z,991.92
2019-05-11T07:53:45.057Z,991.91
2019-05-11T07:54:45.060Z,991.98
2019-05-11T07:55:45.036Z,992.01
2019-05-11T07:56:45.023Z,991.97
2019-05-11T07:57:45.086Z,992.01
2019-05-11T07:58:45.003Z,992.00
2019-05-11T07:59:45.004Z,992.10
2019-05-11T08:00:44.978Z,992.02
2019-05-11T08:01:44.963Z,992.00
2019-05-11T08:02:44.955Z,991.99
2019-05-11T08:03:45.011Z,992.04
2019-05-11T08:04:44.943Z,991.96
2019-05-11T08:05:44.919Z,991.91
2019-05-11T08:06:44.914Z,991.99
2019-05-11T08:07:44.895Z,992.00
2019-05-11T08:08:44.881Z,991.99
2019-05-11T08:09:44.941Z,992.03
2019-05-11T08:10:44.862Z,992.06
2019-05-11T08:11:44.849Z,992.00
2019-05-11T08:12:44.853Z,992.08
2019-05-11T08:13:44.826Z,992.05
2019-05-11T08:14:59.122Z,992.01
2019-05-11T08:15:45.872Z,992.03
2019-05-11T08:16:44.793Z,992.07
2019-05-11T08:17:44.783Z,991.99
2019-05-11T08:18:44.772Z,992.01
2019-05-11T08:19:44.848Z,992.01
2019-05-11T08:20:44.742Z,992.01
2019-05-11T08:21:45.048Z,991.99
2019-05-11T08:22:44.720Z,992.05
2019-05-11T08:23:44.712Z,992.12
2019-05-11T08:24:44.696Z,992.00
2019-05-11T08:25:44.778Z,992.06
2019-05-11T08:26:44.676Z,992.04
2019-05-11T08:27:44.738Z,991.99
2019-05-11T08:28:44.649Z,992.13
2019-05-11T08:29:44.650Z,992.00
2019-05-11T08:30:44.626Z,991.99
2019-05-11T08:31:44.616Z,992.00
2019-05-11T08:32:44.633Z,991.99
2019-05-11T08:33:44.672Z,992.03
2019-05-11T08:34:44.583Z,992.01
2019-05-11T08:35:44.600Z,992.04
2019-05-11T08:36:44.557Z,991.97
2019-05-11T08:37:44.547Z,992.02
2019-05-11T08:38:44.573Z,992.04
2019-05-11T08:39:44.601Z,992.01
2019-05-11T08:40:44.521Z,992.00
2019-05-11T08:41:44.510Z,991.98
2019-05-11T08:42:44.496Z,992.03
2019-05-11T08:43:44.481Z,991.95
2019-05-11T08:44:44.468Z,991.98
2019-05-11T08:45:44.525Z,992.00
2019-05-11T08:46:44.454Z,992.03
2019-05-11T08:47:44.437Z,991.99
2019-05-11T08:48:44.422Z,992.09
2019-05-11T08:49:44.451Z,992.03
2019-05-11T08:50:44.438Z,992.00
2019-05-11T08:51:44.454Z,991.99
2019-05-11T08:52:44.380Z,992.04
2019-05-11T08:53:44.424Z,992.08
2019-05-11T08:54:44.370Z,992.07
2019-05-11T08:55:44.337Z,992.09
2019-05-11T08:56:44.334Z,992.07
2019-05-11T08:57:44.405Z,992.12
2019-05-11T08:58:44.303Z,992.14
2019-05-11T08:59:44.295Z,992.15
2019-05-11T09:00:44.280Z,992.18
2019-05-11T09:01:44.803Z,992.12
2019-05-11T09:02:46.848Z,992.18
2019-05-11T09:03:47.618Z,992.21
2019-05-11T09:04:44.238Z,992.30
2019-05-11T09:05:44.244Z,992.28
2019-05-11T09:06:44.217Z,992.27
2019-05-11T09:07:44.200Z,992.20
2019-05-11T09:08:44.216Z,992.18
2019-05-11T09:09:44.245Z,992.20
2019-05-11T09:10:44.182Z,992.18
2019-05-11T09:11:44.169Z,992.14
2019-05-11T09:12:44.145Z,992.14
2019-05-11T09:13:44.130Z,992.08
2019-05-11T09:14:44.131Z,992.11
2019-05-11T09:15:44.191Z,992.18
2019-05-11T09:16:44.096Z,992.12
2019-05-11T09:17:44.144Z,992.16
2019-05-11T09:18:44.084Z,992.17
2019-05-11T09:19:44.066Z,992.18
2019-05-11T09:20:44.062Z,992.14
2019-05-11T09:21:44.106Z,992.09
2019-05-11T09:22:44.026Z,992.06
2019-05-11T09:23:44.048Z,992.01
2019-05-11T09:24:44.006Z,992.00
2019-05-11T09:25:44.000Z,991.92
2019-05-11T09:26:43.979Z,991.94
2019-05-11T09:27:44.067Z,991.80
2019-05-11T09:28:43.965Z,991.83
2019-05-11T09:29:44.135Z,991.82
2019-05-11T09:30:43.937Z,991.83
2019-05-11T09:31:43.921Z,991.85
2019-05-11T09:32:43.910Z,991.93
2019-05-11T09:33:43.971Z,992.01
2019-05-11T09:34:43.892Z,992.08
2019-05-11T09:35:50.118Z,992.16
2019-05-11T09:36:44.874Z,992.21
2019-05-11T09:37:43.854Z,992.27
2019-05-11T09:38:43.840Z,992.36
2019-05-11T09:39:43.938Z,992.32
2019-05-11T09:40:43.823Z,992.33
2019-05-11T09:41:43.804Z,992.40
2019-05-11T09:42:43.830Z,992.32
2019-05-11T09:43:43.782Z,992.33
2019-05-11T09:44:43.771Z,992.38
2019-05-11T09:45:48.525Z,992.38
2019-05-11T09:46:44.759Z,992.31
2019-05-11T09:47:43.736Z,992.28
2019-05-11T09:48:43.739Z,992.29
2019-05-11T09:49:47.790Z,992.35
2019-05-11T09:50:44.780Z,992.29
2019-05-11T09:51:43.702Z,992.27
2019-05-11T09:52:43.677Z,992.24
2019-05-11T09:53:43.667Z,992.22
2019-05-11T09:54:43.659Z,992.24
2019-05-11T09:55:43.662Z,992.21
2019-05-11T09:56:43.703Z,992.20
2019-05-11T09:57:43.621Z,992.22
2019-05-11T09:58:43.613Z,992.11
2019-05-11T09:59:43.598Z,992.08
2019-05-11T10:00:43.597Z,992.08
2019-05-11T10:01:43.611Z,992.06
2019-05-11T10:02:43.633Z,991.99
2019-05-11T10:03:43.553Z,992.12
2019-05-11T10:04:43.575Z,992.11
2019-05-11T10:05:43.531Z,992.16
2019-05-11T10:06:43.524Z,992.18
2019-05-11T10:07:43.506Z,992.17
2019-05-11T10:08:43.572Z,992.23
2019-05-11T10:09:43.483Z,992.22
2019-05-11T10:10:43.557Z,992.20
2019-05-11T10:11:43.464Z,992.22
2019-05-11T10:12:43.455Z,992.25
2019-05-11T10:13:43.437Z,992.15
2019-05-11T10:14:43.500Z,992.13
2019-05-11T10:15:43.415Z,992.15
2019-05-11T10:16:43.439Z,992.19
2019-05-11T10:17:43.393Z,992.16
2019-05-11T10:18:43.382Z,992.23
2019-05-11T10:19:43.368Z,992.22
2019-05-11T10:20:43.441Z,992.20
2019-05-11T10:21:43.346Z,992.22
2019-05-11T10:22:43.352Z,992.13
2019-05-11T10:23:43.325Z,992.15
2019-05-11T10:24:43.314Z,992.06
2019-05-11T10:25:43.297Z,992.02
2019-05-11T10:26:43.379Z,992.04
2019-05-11T10:27:43.277Z,991.96
2019-05-11T10:28:43.281Z,992.08
2019-05-11T10:29:43.251Z,992.10
2019-05-11T10:30:43.239Z,992.14
2019-05-11T10:31:43.247Z,992.20
2019-05-11T10:32:43.291Z,992.23
2019-05-11T10:33:43.211Z,992.09
2019-05-11T10:34:43.253Z,992.14
2019-05-11T10:35:43.183Z,992.22
2019-05-11T10:36:43.179Z,992.17
2019-05-11T10:37:43.161Z,992.15
2019-05-11T10:38:43.217Z,992.16
2019-05-11T10:39:43.152Z,992.21
2019-05-11T10:40:43.127Z,992.16
2019-05-11T10:41:43.120Z,992.22
2019-05-11T10:42:43.107Z,992.25
2019-05-11T10:43:43.093Z,992.17
2019-05-11T10:44:43.159Z,992.23
2019-05-11T10:45:43.081Z,992.21
2019-05-11T10:46:43.058Z,992.17
2019-05-11T10:47:43.049Z,992.25
2019-05-11T10:48:43.036Z,992.27
2019-05-11T10:49:43.023Z,992.22
2019-05-11T10:50:43.086Z,992.26
2019-05-11T10:51:43.010Z,992.19
2019-05-11T10:52:42.992Z,992.29
2019-05-11T10:53:42.979Z,992.24
2019-05-11T10:54:42.966Z,992.29
2019-05-11T10:55:42.958Z,992.25
2019-05-11T10:56:43.016Z,992.31
2019-05-11T10:57:42.948Z,992.26
2019-05-11T10:58:42.922Z,992.30
2019-05-11T10:59:42.909Z,992.23
2019-05-11T11:00:42.895Z,992.26
2019-05-11T11:01:42.889Z,992.24
2019-05-11T11:02:42.951Z,992.22
2019-05-11T11:03:42.901Z,992.23
2019-05-11T11:04:42.866Z,992.29
2019-05-11T11:05:42.837Z,992.37
2019-05-11T11:06:42.832Z,992.29
2019-05-11T11:07:42.817Z,992.33
2019-05-11T11:08:42.890Z,992.34
2019-05-11T11:09:42.796Z,992.29
2019-05-11T11:10:42.786Z,992.31
2019-05-11T11:11:42.771Z,992.29
2019-05-11T11:12:42.763Z,992.28
2019-05-11T11:13:42.747Z,992.35
2019-05-11T11:14:42.824Z,992.33
2019-05-11T11:15:42.732Z,992.33
2019-05-11T11:16:43.071Z,992.32
2019-05-11T11:17:42.706Z,992.36
2019-05-11T11:18:42.688Z,992.30
2019-05-11T11:19:42.684Z,992.46
2019-05-11T11:20:42.754Z,992.46
2019-05-11T11:21:42.656Z,992.41
2019-05-11T11:22:44.206Z,992.43
2019-05-11T11:23:42.630Z,992.45
2019-05-11T11:24:42.619Z,992.44
2019-05-11T11:25:42.611Z,992.44
2019-05-11T11:26:42.689Z,992.44
2019-05-11T11:27:42.606Z,992.49
2019-05-11T11:28:42.585Z,992.44
2019-05-11T11:29:42.563Z,992.45
2019-05-11T11:30:42.550Z,992.53
2019-05-11T11:31:42.547Z,992.61
2019-05-11T11:32:42.603Z,992.56
2019-05-11T11:33:42.523Z,992.55
2019-05-11T11:34:42.522Z,992.63
2019-05-11T11:35:42.500Z,992.56
2019-05-11T11:36:42.484Z,992.64
2019-05-11T11:37:42.471Z,992.63
2019-05-11T11:38:42.566Z,992.62
2019-05-11T11:39:42.450Z,992.71
2019-05-11T11:40:42.998Z,992.64
2019-05-11T11:41:42.439Z,992.70
2019-05-11T11:42:42.413Z,992.71
2019-05-11T11:43:42.410Z,992.72
2019-05-11T11:44:42.462Z,992.69
2019-05-11T11:45:42.482Z,992.70
2019-05-11T11:46:52.102Z,992.67
2019-05-11T11:47:43.359Z,992.80
2019-05-11T11:48:42.354Z,992.71
2019-05-11T11:49:42.333Z,992.70
2019-05-11T11:50:42.403Z,992.76
2019-05-11T11:51:42.314Z,992.73
2019-05-11T11:52:44.993Z,992.79
2019-05-11T11:53:42.290Z,992.76
2019-05-11T11:54:42.276Z,992.62
2019-05-11T11:55:42.319Z,992.70
2019-05-11T11:56:42.343Z,992.62
2019-05-11T11:57:42.243Z,992.61
2019-05-11T11:58:42.233Z,992.52
2019-05-11T11:59:42.232Z,992.59
2019-05-11T12:00:42.214Z,992.60
2019-05-11T12:01:42.201Z,992.60
2019-05-11T12:02:42.273Z,992.55
2019-05-11T12:03:42.178Z,992.64
2019-05-11T12:04:42.165Z,992.66
2019-05-11T12:05:42.151Z,992.67
2019-05-11T12:06:42.141Z,992.61
2019-05-11T12:07:42.162Z,992.69
2019-05-11T12:08:42.193Z,992.53
2019-05-11T12:09:42.107Z,992.56
2019-05-11T12:10:42.097Z,992.49
2019-05-11T12:11:42.084Z,992.58
2019-05-11T12:12:42.074Z,992.62
2019-05-11T12:13:42.061Z,992.72
2019-05-11T12:14:42.135Z,992.74
2019-05-11T12:15:42.035Z,992.85
2019-05-11T12:16:42.085Z,992.88
2019-05-11T12:17:42.030Z,992.95
2019-05-11T12:18:42.004Z,992.86
2019-05-11T12:19:41.991Z,992.97
2019-05-11T12:20:42.169Z,993.00
2019-05-11T12:21:41.972Z,992.87
2019-05-11T12:22:41.961Z,992.89
2019-05-11T12:23:42.070Z,992.85
2019-05-11T12:24:41.949Z,992.86
2019-05-11T12:25:41.921Z,992.80
2019-05-11T12:26:41.995Z,992.73
2019-05-11T12:27:41.908Z,992.79
2019-05-11T12:28:41.900Z,992.85